Time;durP1;ratioP1;P1;durP2;ratioP2;P2;SDS_P1;SDS_P2;PMS_P1;PMS_P2;Temp;Humidity;BMP_temperature;BMP_pressure;BME280_temperature;BME280_humidity;BME280_pressure;Samples;Min_cycle;Max_cycle;Signal;HPM_P1;HPM_P2
2022/01/30 00:01:42;;;;;;;0.80;0.40;;;23.40;33.00;;;;;;5027461;28;20033;-47
2022/01/30 00:04:08;;;;;;;1.48;0.60;;;23.40;33.00;;;;;;5027916;28;20559;-48
2022/01/30 00:06:34;;;;;;;1.73;0.63;;;23.30;33.00;;;;;;5027129;28;20033;-47
2022/01/30 00:08:59;;;;;;;1.33;0.50;;;23.30;32.90;;;;;;5025952;28;20033;-47
2022/01/30 00:11:30;;;;;;;0.93;0.40;;;23.30;32.90;;;;;;5027294;28;20037;-47
2022/01/30 00:13:58;;;;;;;1.10;0.50;;;23.30;33.00;;;;;;5026295;28;20056;-47
2022/01/30 00:16:25;;;;;;;1.42;0.63;;;23.30;32.90;;;;;;5027103;28;20144;-48
2022/01/30 00:19:03;;;;;;;1.42;0.60;;;23.30;32.90;;;;;;5026598;28;20501;-51
2022/01/30 00:21:37;;;;;;;1.13;0.52;;;23.30;32.90;;;;;;5027164;28;20032;-45
2022/01/30 00:24:09;;;;;;;1.42;0.60;;;23.30;32.90;;;;;;5026533;28;20445;-47
2022/01/30 00:26:37;;;;;;;1.00;0.40;;;23.30;32.90;;;;;;5027638;28;20034;-45
2022/01/30 00:29:04;;;;;;;1.15;0.52;;;23.30;32.90;;;;;;5027551;28;20029;-48
2022/01/30 00:31:31;;;;;;;1.02;0.50;;;23.20;32.90;;;;;;5025324;28;20112;-46
2022/01/30 00:33:57;;;;;;;0.90;0.35;;;23.20;32.90;;;;;;5026797;28;20128;-46
2022/01/30 00:36:23;;;;;;;1.02;0.45;;;23.20;32.90;;;;;;5027406;28;20108;-47
2022/01/30 00:38:49;;;;;;;0.80;0.40;;;23.20;32.90;;;;;;5026803;28;20056;-47
2022/01/30 00:41:14;;;;;;;0.88;0.40;;;23.20;32.90;;;;;;5025756;28;20021;-46
2022/01/30 00:43:40;;;;;;;1.05;0.40;;;23.20;32.90;;;;;;5026974;28;20104;-46
2022/01/30 00:46:06;;;;;;;1.00;0.45;;;23.20;33.00;;;;;;5026056;28;20049;-46
2022/01/30 00:48:32;;;;;;;0.85;0.40;;;23.20;33.00;;;;;;5025675;28;20620;-45
2022/01/30 00:50:58;;;;;;;2.15;0.50;;;23.20;33.00;;;;;;5024337;28;20132;-49
2022/01/30 00:53:23;;;;;;;1.13;0.50;;;23.20;33.10;;;;;;5025724;28;20045;-46
2022/01/30 00:55:49;;;;;;;0.93;0.40;;;23.10;33.10;;;;;;5024684;28;20537;-47
2022/01/30 00:58:15;;;;;;;0.60;0.32;;;23.10;33.20;;;;;;5023950;28;20075;-47
2022/01/30 01:00:41;;;;;;;1.27;0.50;;;23.10;33.80;;;;;;5025053;28;20104;-47
2022/01/30 01:03:07;;;;;;;1.30;0.47;;;23.10;33.10;;;;;;5026864;28;20505;-46
2022/01/30 01:05:34;;;;;;;1.10;0.47;;;23.10;33.20;;;;;;5027012;28;20663;-47
2022/01/30 01:08:09;;;;;;;0.40;0.30;;;23.10;33.10;;;;;;5024492;28;20032;-47
2022/01/30 01:10:45;;;;;;;0.52;0.40;;;23.00;33.00;;;;;;5024808;28;20037;-48
2022/01/30 01:23:53;;;;;;;0.35;0.20;;;23.00;33.70;;;;;;5026013;28;20104;-46
2022/01/30 01:26:21;;;;;;;0.85;0.38;;;23.00;33.00;;;;;;5026015;28;20669;-45
2022/01/30 01:28:47;;;;;;;0.47;0.22;;;23.00;33.00;;;;;;5025841;28;20021;-46
2022/01/30 01:31:13;;;;;;;0.98;0.40;;;23.00;33.10;;;;;;5025645;28;20144;-48
2022/01/30 01:36:18;;;;;;;0.50;0.30;;;23.00;33.10;;;;;;5026175;28;20037;-49
2022/01/30 01:38:44;;;;;;;1.02;0.43;;;22.90;33.20;;;;;;5025893;28;20060;-45
2022/01/30 01:41:11;;;;;;;1.30;0.40;;;22.90;33.20;;;;;;5026023;28;20057;-46
2022/01/30 01:43:37;;;;;;;0.70;0.38;;;22.90;33.20;;;;;;5025863;28;20029;-45
2022/01/30 01:46:11;;;;;;;0.80;0.25;;;22.90;33.20;;;;;;5026023;28;20038;-49
2022/01/30 01:48:37;;;;;;;0.80;0.30;;;22.90;33.20;;;;;;5024054;28;20068;-47
2022/01/30 01:51:14;;;;;;;0.60;0.30;;;22.90;33.20;;;;;;5025530;28;20049;-49
2022/01/30 01:53:40;;;;;;;0.47;0.20;;;22.90;33.20;;;;;;5025691;28;20136;-47
2022/01/30 01:56:06;;;;;;;0.40;0.22;;;22.90;33.10;;;;;;5026083;28;20113;-47
2022/01/30 01:58:32;;;;;;;0.82;0.35;;;22.80;33.10;;;;;;5025933;28;20034;-47
2022/01/30 02:01:01;;;;;;;0.88;0.32;;;22.90;33.20;;;;;;5023936;28;20021;-47
2022/01/30 02:03:27;;;;;;;0.47;0.30;;;22.90;33.20;;;;;;5025959;28;20030;-46
2022/01/30 02:05:58;;;;;;;1.10;0.35;;;22.80;33.10;;;;;;5026147;28;20025;-47
2022/01/30 02:24:35;;;;;;;0.57;0.30;;;22.80;33.00;;;;;;5023069;28;20024;-47
2022/01/30 02:27:02;;;;;;;0.43;0.22;;;22.80;33.10;;;;;;5023508;28;20056;-46
2022/01/30 02:29:28;;;;;;;0.28;0.28;;;22.70;33.20;;;;;;5025343;28;20549;-46
2022/01/30 02:31:58;;;;;;;0.68;0.30;;;22.80;33.20;;;;;;5025045;28;20037;-48
2022/01/30 02:34:29;;;;;;;0.88;0.17;;;22.80;33.20;;;;;;5024351;28;20041;-46
2022/01/30 02:36:55;;;;;;;0.50;0.30;;;22.70;33.30;;;;;;5025058;28;20516;-47
2022/01/30 02:39:22;;;;;;;0.25;0.17;;;22.70;33.20;;;;;;5023763;28;20026;-48
2022/01/30 02:41:48;;;;;;;0.50;0.30;;;22.70;33.20;;;;;;5024669;28;20064;-46
2022/01/30 02:44:21;;;;;;;0.75;0.30;;;22.70;33.20;;;;;;5024719;28;20057;-45
2022/01/30 02:46:49;;;;;;;;;;;22.70;33.20;;;;;;5025126;28;20108;-46
2022/01/30 02:51:59;;;;;;;0.40;0.20;;;22.70;33.20;;;;;;5024778;28;20028;-46
2022/01/30 02:54:26;;;;;;;0.40;0.20;;;22.70;33.20;;;;;;5025220;28;20494;-46
2022/01/30 02:56:52;;;;;;;0.35;0.25;;;22.60;33.10;;;;;;5025028;28;20029;-48
2022/01/30 02:59:17;;;;;;;0.77;0.30;;;22.70;33.20;;;;;;5040064;28;20122;-47
2022/01/30 03:01:43;;;;;;;0.50;0.30;;;22.60;33.20;;;;;;5023947;28;20437;-49
2022/01/30 03:04:10;;;;;;;0.73;0.30;;;22.60;33.20;;;;;;5025186;28;20044;-45
2022/01/30 03:06:37;;;;;;;0.65;0.30;;;22.60;33.10;;;;;;5024369;28;20026;-48
2022/01/30 03:09:04;;;;;;;0.60;0.30;;;22.60;33.10;;;;;;5023243;28;20080;-46
2022/01/30 03:11:30;;;;;;;0.88;0.35;;;22.60;33.20;;;;;;5024114;28;20033;-45
2022/01/30 03:13:56;;;;;;;0.70;0.20;;;22.60;33.40;;;;;;5024099;28;20034;-47
2022/01/30 03:16:22;;;;;;;0.65;0.20;;;22.60;33.30;;;;;;5024103;28;20033;-48
2022/01/30 03:18:48;;;;;;;0.60;0.20;;;22.60;33.30;;;;;;5025260;28;20060;-48
2022/01/30 03:21:14;;;;;;;0.70;0.20;;;22.60;33.50;;;;;;5030899;28;20037;-47
2022/01/30 03:23:40;;;;;;;1.02;0.40;;;22.60;33.40;;;;;;5030306;28;20025;-47
2022/01/30 03:26:07;;;;;;;0.43;0.10;;;22.60;33.40;;;;;;5030769;28;20022;-47
2022/01/30 03:28:33;;;;;;;0.35;0.15;;;22.60;33.40;;;;;;5030712;28;20493;-47
2022/01/30 03:31:03;;;;;;;0.55;0.30;;;22.60;33.30;;;;;;5029689;28;20052;-48
2022/01/30 03:33:29;;;;;;;0.22;0.20;;;22.60;33.30;;;;;;5028776;28;20687;-45
2022/01/30 03:35:55;;;;;;;0.25;0.20;;;22.60;33.30;;;;;;5030637;28;20059;-48
2022/01/30 03:38:22;;;;;;;0.85;0.32;;;22.60;33.30;;;;;;5030770;28;20064;-46
2022/01/30 03:40:49;;;;;;;0.20;0.20;;;22.60;33.30;;;;;;5029422;28;20459;-46
2022/01/30 03:43:15;;;;;;;0.50;0.25;;;22.50;33.30;;;;;;5030374;28;20072;-49
2022/01/30 03:45:41;;;;;;;0.60;0.20;;;22.50;33.40;;;;;;5029626;28;20128;-46
2022/01/30 03:48:07;;;;;;;0.20;0.10;;;22.50;33.30;;;;;;5030269;28;20581;-48
2022/01/30 03:50:33;;;;;;;0.50;0.20;;;22.50;33.30;;;;;;5027968;28;20037;-46
2022/01/30 03:52:59;;;;;;;0.63;0.28;;;22.50;33.30;;;;;;5029934;28;20100;-47
2022/01/30 03:55:24;;;;;;;0.30;0.13;;;22.50;33.30;;;;;;5029547;28;20113;-47
2022/01/30 03:57:50;;;;;;;0.85;0.28;;;22.50;33.30;;;;;;5029821;28;20037;-45
2022/01/30 04:00:17;;;;;;;0.32;0.17;;;22.50;33.40;;;;;;5029363;28;20056;-48
2022/01/30 04:02:43;;;;;;;0.40;0.20;;;22.50;33.50;;;;;;5029411;28;20056;-46
2022/01/30 04:05:09;;;;;;;0.63;0.20;;;22.50;33.60;;;;;;5029707;28;20068;-49
2022/01/30 04:07:35;;;;;;;0.52;0.20;;;22.50;33.60;;;;;;5029716;28;20509;-45
2022/01/30 04:10:03;;;;;;;0.30;0.20;;;22.40;33.60;;;;;;5029271;28;20017;-44
2022/01/30 04:12:29;;;;;;;0.45;0.20;;;22.50;33.60;;;;;;5028952;28;20184;-47
2022/01/30 04:14:55;;;;;;;0.13;0.10;;;22.50;33.60;;;;;;5028901;28;20085;-47
2022/01/30 04:17:21;;;;;;;0.35;0.10;;;22.50;33.60;;;;;;5029150;28;20040;-47
2022/01/30 04:19:48;;;;;;;0.30;0.20;;;22.50;33.50;;;;;;5029535;28;20112;-46
2022/01/30 04:22:14;;;;;;;0.32;0.20;;;22.50;33.50;;;;;;5029959;28;20029;-47
2022/01/30 04:24:40;;;;;;;0.40;0.20;;;22.40;33.40;;;;;;5029289;28;20531;-48
2022/01/30 04:27:06;;;;;;;0.30;0.20;;;22.40;33.40;;;;;;5029125;28;20034;-46
2022/01/30 04:29:32;;;;;;;0.30;0.20;;;22.40;33.40;;;;;;5029552;28;20055;-49
2022/01/30 04:31:58;;;;;;;0.65;0.22;;;22.40;33.40;;;;;;5025455;28;20049;-48
2022/01/30 04:34:26;;;;;;;0.57;0.30;;;22.40;33.40;;;;;;5025687;28;20042;-47
2022/01/30 04:58:00;;;;;;;0.52;0.35;;;22.30;33.70;;;;;;5026484;28;20113;-47
2022/01/30 05:00:37;;;;;;;0.20;0.10;;;22.30;33.70;;;;;;5040447;28;20032;-48
2022/01/30 05:08:14;;;;;;;0.30;0.10;;;22.30;33.60;;;;;;5006205;28;20026;-48
2022/01/30 05:10:40;;;;;;;0.43;0.20;;;22.30;33.60;;;;;;5005826;28;20030;-47
2022/01/30 05:13:10;;;;;;;0.22;0.13;;;22.30;33.60;;;;;;5006936;28;20030;-47
2022/01/30 05:15:36;;;;;;;0.50;0.20;;;22.30;33.70;;;;;;5007077;28;20033;-49
2022/01/30 05:18:02;;;;;;;0.55;0.20;;;22.30;33.60;;;;;;5026265;28;20097;-48
2022/01/30 05:20:29;;;;;;;0.88;0.20;;;22.30;33.70;;;;;;5025948;28;20404;-47
2022/01/30 05:22:56;;;;;;;0.80;0.32;;;22.30;33.60;;;;;;5024829;28;20028;-49
2022/01/30 05:25:23;;;;;;;0.73;0.20;;;22.30;33.70;;;;;;5026523;28;20485;-48
2022/01/30 05:27:49;;;;;;;0.57;0.20;;;22.30;33.60;;;;;;5026135;28;20026;-47
2022/01/30 05:30:15;;;;;;;0.13;0.10;;;22.30;33.60;;;;;;5026121;28;20034;-49
2022/01/30 05:32:41;;;;;;;0.20;0.10;;;22.30;33.60;;;;;;5025721;28;20457;-46
2022/01/30 05:35:07;;;;;;;0.20;0.10;;;22.30;33.60;;;;;;5024609;28;20680;-48
2022/01/30 05:37:33;;;;;;;0.57;0.20;;;22.30;33.60;;;;;;5024588;28;20070;-48
2022/01/30 05:39:59;;;;;;;0.47;0.28;;;22.30;33.70;;;;;;5024141;28;20108;-47
2022/01/30 05:42:27;;;;;;;0.25;0.13;;;22.30;33.60;;;;;;5024192;28;20257;-47
2022/01/30 05:45:07;;;;;;;0.75;0.20;;;22.30;33.70;;;;;;5026045;28;20406;-46
2022/01/30 05:47:42;;;;;;;0.30;0.10;;;22.30;33.70;;;;;;5024837;28;20037;-45
2022/01/30 05:50:08;;;;;;;0.20;0.10;;;22.30;33.60;;;;;;5025062;28;20572;-46
2022/01/30 05:52:34;;;;;;;0.30;0.10;;;22.30;33.60;;;;;;5025609;28;20474;-46
2022/01/30 05:54:59;;;;;;;0.10;0.10;;;22.30;33.60;;;;;;5026299;28;20037;-45
2022/01/30 05:57:27;;;;;;;0.70;0.10;;;22.20;33.50;;;;;;5026025;28;20029;-47
2022/01/30 05:59:52;;;;;;;0.38;0.00;;;22.20;33.50;;;;;;5025781;28;20034;-47
2022/01/30 06:02:18;;;;;;;0.20;0.00;;;22.30;33.70;;;;;;5024886;28;20032;-47
2022/01/30 06:04:44;;;;;;;0.70;0.17;;;22.20;33.50;;;;;;5025899;28;20033;-47
2022/01/30 06:07:11;;;;;;;0.05;0.05;;;22.20;33.50;;;;;;5025618;28;20148;-45
2022/01/30 06:09:37;;;;;;;0.03;0.00;;;22.30;33.50;;;;;;5025448;28;20045;-47
2022/01/30 06:12:03;;;;;;;0.30;0.10;;;22.20;33.50;;;;;;5025590;28;20033;-46
2022/01/30 06:14:29;;;;;;;0.15;0.10;;;22.20;33.40;;;;;;5025570;28;20068;-46
2022/01/30 06:16:55;;;;;;;0.60;0.20;;;22.20;33.40;;;;;;5023520;28;20057;-48
2022/01/30 06:19:22;;;;;;;0.30;0.20;;;22.20;33.40;;;;;;5025650;28;20033;-47
2022/01/30 06:21:51;;;;;;;0.40;0.30;;;22.20;33.50;;;;;;5025320;28;20027;-46
2022/01/30 06:24:17;;;;;;;0.38;0.10;;;22.20;33.60;;;;;;5023637;28;20021;-44
2022/01/30 06:26:42;;;;;;;0.20;0.17;;;22.20;33.80;;;;;;5025428;28;20033;-46
2022/01/30 06:29:08;;;;;;;0.15;0.10;;;22.30;34.00;;;;;;5025371;28;20029;-49
2022/01/30 06:31:34;;;;;;;0.20;0.05;;;22.30;34.10;;;;;;5024848;28;20040;-46
2022/01/30 06:34:00;;;;;;;0.22;0.10;;;22.30;34.10;;;;;;5025080;28;20091;-47
2022/01/30 06:36:25;;;;;;;0.75;0.30;;;22.40;34.10;;;;;;5023424;28;20167;-49
2022/01/30 06:38:52;;;;;;;1.00;0.20;;;22.40;34.00;;;;;;5024703;28;20044;-46
2022/01/30 06:41:18;;;;;;;0.82;0.13;;;22.50;34.10;;;;;;5023821;28;20029;-47
2022/01/30 06:43:44;;;;;;;0.30;0.10;;;22.50;34.00;;;;;;5024754;28;20507;-46
2022/01/30 06:46:11;;;;;;;1.00;0.20;;;22.60;33.90;;;;;;5024101;28;20101;-48
2022/01/30 06:48:37;;;;;;;1.40;0.50;;;22.70;33.90;;;;;;5024604;28;20047;-46
2022/01/30 06:51:05;;;;;;;0.30;0.10;;;22.80;33.80;;;;;;5023194;28;20029;-47
2022/01/30 06:53:31;;;;;;;0.40;0.13;;;22.80;33.60;;;;;;5023844;28;20033;-45
2022/01/30 06:55:57;;;;;;;1.17;0.30;;;22.90;33.60;;;;;;5023204;28;20025;-46
2022/01/30 06:58:23;;;;;;;0.52;0.20;;;23.00;33.50;;;;;;5024875;28;20528;-47
2022/01/30 07:00:48;;;;;;;0.45;0.10;;;23.00;33.40;;;;;;5024224;28;20033;-47
2022/01/30 07:03:14;;;;;;;1.85;0.20;;;23.10;33.40;;;;;;5023542;28;20034;-45
2022/01/30 07:05:40;;;;;;;1.40;0.20;;;23.20;33.30;;;;;;5023376;28;20051;-46
2022/01/30 07:08:05;;;;;;;0.68;0.13;;;23.30;33.20;;;;;;5024260;28;20029;-46
2022/01/30 07:10:31;;;;;;;0.68;0.10;;;23.30;33.20;;;;;;5023786;28;20322;-49
2022/01/30 07:12:57;;;;;;;0.65;0.17;;;23.40;33.10;;;;;;5022672;28;20241;-45
2022/01/30 07:15:23;;;;;;;0.63;0.20;;;23.50;33.00;;;;;;5022504;28;20061;-45
2022/01/30 07:17:48;;;;;;;1.13;0.38;;;23.50;32.90;;;;;;5023216;28;20034;-48
2022/01/30 07:20:14;;;;;;;0.40;0.20;;;23.60;32.80;;;;;;5024309;28;20096;-47
2022/01/30 07:22:40;;;;;;;1.08;0.20;;;23.60;32.70;;;;;;5023331;28;20026;-46
2022/01/30 07:25:07;;;;;;;0.82;0.20;;;23.70;32.80;;;;;;5022572;28;20036;-48
2022/01/30 07:27:35;;;;;;;0.57;0.20;;;23.80;32.70;;;;;;5020761;28;20048;-47
2022/01/30 07:30:01;;;;;;;0.55;0.20;;;23.80;32.60;;;;;;5022687;28;20040;-45
2022/01/30 07:32:27;;;;;;;1.20;0.20;;;23.90;32.60;;;;;;5022593;28;20037;-44
2022/01/30 07:34:53;;;;;;;1.25;0.28;;;23.90;32.60;;;;;;5020423;28;20021;-47
2022/01/30 07:37:19;;;;;;;0.65;0.30;;;24.00;32.50;;;;;;5021279;28;20068;-46
2022/01/30 07:39:45;;;;;;;1.17;0.28;;;24.10;32.50;;;;;;5023080;28;20764;-47
2022/01/30 07:42:11;;;;;;;1.85;0.30;;;24.10;32.40;;;;;;5022042;28;20413;-47
2022/01/30 07:44:38;;;;;;;0.38;0.10;;;24.20;32.30;;;;;;5023061;28;20097;-49
2022/01/30 07:47:04;;;;;;;0.20;0.10;;;24.30;32.20;;;;;;5021910;28;20095;-47
2022/01/30 07:49:30;;;;;;;0.30;0.10;;;24.30;32.20;;;;;;5023345;28;20026;-47
2022/01/30 07:51:56;;;;;;;1.85;0.20;;;24.30;32.10;;;;;;5019982;28;20040;-46
2022/01/30 07:54:21;;;;;;;1.70;0.20;;;24.40;32.00;;;;;;5022827;28;20028;-47
2022/01/30 07:56:47;;;;;;;1.13;0.28;;;24.50;32.00;;;;;;5022167;28;20095;-48
2022/01/30 07:59:13;;;;;;;0.85;0.10;;;24.50;32.00;;;;;;5022132;28;20032;-46
2022/01/30 08:01:39;;;;;;;1.05;0.40;;;24.50;32.10;;;;;;5022390;28;20513;-47
2022/01/30 08:04:08;;;;;;;1.33;0.40;;;24.60;32.40;;;;;;5022587;28;20041;-47
2022/01/30 08:06:37;;;;;;;2.88;0.35;;;24.60;33.00;;;;;;5023775;28;20075;-46
2022/01/30 08:09:03;;;;;;;1.95;0.60;;;24.70;33.10;;;;;;5025937;28;20033;-47
2022/01/30 08:11:29;;;;;;;2.45;0.50;;;24.70;33.60;;;;;;5020256;28;20040;-49
2022/01/30 08:13:55;;;;;;;3.72;1.00;;;24.80;33.50;;;;;;5024372;28;20045;-50
2022/01/30 08:16:21;;;;;;;4.05;0.90;;;24.80;33.30;;;;;;5023470;28;20136;-49
2022/01/30 08:18:47;;;;;;;6.93;1.67;;;24.90;33.60;;;;;;5026034;28;20024;-49
2022/01/30 08:21:13;;;;;;;6.13;1.30;;;24.90;34.10;;;;;;5025148;28;20212;-48
2022/01/30 08:23:38;;;;;;;4.95;0.90;;;24.90;34.80;;;;;;5026151;28;20032;-47
2022/01/30 08:26:04;;;;;;;4.88;1.42;;;25.00;34.50;;;;;;5025374;28;20524;-48
2022/01/30 08:28:30;;;;;;;4.45;0.90;;;25.00;34.90;;;;;;5025424;28;20021;-48
2022/01/30 08:30:56;;;;;;;4.32;0.90;;;25.00;34.00;;;;;;5025669;28;20095;-48
2022/01/30 08:33:22;;;;;;;5.07;1.10;;;25.00;33.90;;;;;;5025571;28;20033;-49
2022/01/30 08:35:49;;;;;;;6.47;1.77;;;25.10;33.70;;;;;;5025332;28;20037;-49
2022/01/30 08:38:18;;;;;;;3.42;0.90;;;25.10;33.40;;;;;;5025011;28;20030;-48
2022/01/30 08:40:48;;;;;;;2.67;0.90;;;25.10;33.30;;;;;;5024413;28;20025;-49
2022/01/30 08:43:14;;;;;;;3.35;0.85;;;25.20;33.10;;;;;;5023183;28;20021;-49
2022/01/30 08:45:41;;;;;;;3.97;0.88;;;25.20;33.10;;;;;;5025512;28;20056;-49
2022/01/30 08:48:08;;;;;;;3.63;0.70;;;25.20;33.00;;;;;;5024770;28;20104;-48
2022/01/30 08:50:34;;;;;;;3.80;0.82;;;25.20;32.90;;;;;;5024905;28;20794;-48
2022/01/30 08:52:59;;;;;;;4.80;1.02;;;25.20;32.70;;;;;;5025371;28;20037;-49
2022/01/30 08:55:29;;;;;;;9.40;1.08;;;25.20;31.90;;;;;;5024751;28;20464;-49
2022/01/30 08:57:55;;;;;;;7.75;1.13;;;25.20;31.20;;;;;;5021864;28;20195;-47
2022/01/30 09:00:21;;;;;;;5.50;0.90;;;25.10;30.40;;;;;;5019861;28;20018;-49
2022/01/30 09:02:47;;;;;;;5.32;0.80;;;25.10;29.50;;;;;;5025210;28;20581;-45
2022/01/30 09:05:13;;;;;;;4.25;0.70;;;25.00;28.80;;;;;;5025187;28;20025;-48
2022/01/30 09:07:39;;;;;;;4.10;0.80;;;25.00;29.20;;;;;;5025702;28;20053;-47
2022/01/30 09:10:07;;;;;;;6.65;1.30;;;25.00;28.00;;;;;;5025017;28;20552;-45
2022/01/30 09:12:36;;;;;;;3.92;1.10;;;24.90;28.40;;;;;;5022943;28;20021;-45
2022/01/30 09:15:07;;;;;;;4.30;1.92;;;24.90;28.00;;;;;;5023743;28;20553;-45
2022/01/30 09:17:33;;;;;;;4.18;1.52;;;24.80;27.10;;;;;;5022493;28;20725;-45
2022/01/30 09:19:59;;;;;;;2.30;1.08;;;24.80;27.60;;;;;;5025394;28;20119;-45
2022/01/30 09:22:25;;;;;;;5.38;1.35;;;24.80;27.60;;;;;;5024463;28;20029;-45
2022/01/30 09:24:51;;;;;;;3.70;1.13;;;24.80;28.00;;;;;;5025060;28;20026;-45
2022/01/30 09:27:17;;;;;;;2.75;1.27;;;24.80;28.20;;;;;;5025555;28;20068;-45
2022/01/30 09:29:44;;;;;;;4.22;1.13;;;24.80;28.30;;;;;;5025691;28;20040;-45
2022/01/30 09:32:11;;;;;;;3.85;1.33;;;24.80;28.60;;;;;;5025925;28;20468;-45
2022/01/30 09:34:37;;;;;;;3.03;1.35;;;24.80;28.80;;;;;;5025793;28;20043;-44
2022/01/30 09:37:04;;;;;;;2.33;0.93;;;24.80;28.90;;;;;;5007498;28;20529;-46
2022/01/30 09:39:30;;;;;;;3.90;1.27;;;24.80;29.20;;;;;;5017434;28;20030;-45
2022/01/30 09:41:56;;;;;;;3.45;1.10;;;24.80;29.20;;;;;;5013438;28;20153;-45
2022/01/30 09:44:22;;;;;;;2.95;1.13;;;24.80;29.50;;;;;;5024324;28;20562;-44
2022/01/30 09:46:50;;;;;;;7.22;1.05;;;24.90;29.60;;;;;;5024262;28;20060;-44
2022/01/30 09:49:21;;;;;;;2.03;0.80;;;24.90;29.70;;;;;;5023370;28;20066;-45
2022/01/30 09:51:46;;;;;;;2.88;1.00;;;24.90;29.80;;;;;;5008806;28;20050;-44
2022/01/30 09:54:12;;;;;;;3.75;1.50;;;24.90;30.10;;;;;;5008060;28;20489;-48
2022/01/30 09:56:39;;;;;;;3.00;1.27;;;24.90;30.70;;;;;;5023949;28;20025;-49
2022/01/30 09:59:06;;;;;;;3.30;1.10;;;25.00;30.80;;;;;;5024511;28;20721;-49
2022/01/30 10:01:34;;;;;;;4.07;1.20;;;25.00;31.10;;;;;;5024363;28;20571;-48
2022/01/30 10:04:01;;;;;;;4.18;1.20;;;25.00;31.10;;;;;;5024099;28;20045;-48
2022/01/30 10:06:33;;;;;;;3.42;1.00;;;25.00;31.30;;;;;;5023929;28;20033;-49
2022/01/30 10:09:20;;;;;;;3.05;1.10;;;25.00;31.40;;;;;;5022293;28;20436;-49
2022/01/30 10:11:51;;;;;;;3.03;0.70;;;25.00;31.40;;;;;;5024443;28;20040;-50
2022/01/30 10:14:17;;;;;;;2.90;1.00;;;25.00;31.40;;;;;;5003286;28;20677;-49
2022/01/30 10:16:49;;;;;;;4.00;0.90;;;25.10;31.30;;;;;;5022227;28;20098;-49
2022/01/30 10:19:20;;;;;;;2.17;1.02;;;25.10;31.40;;;;;;5023629;28;20083;-49
2022/01/30 10:21:48;;;;;;;2.63;0.73;;;25.10;31.90;;;;;;5022853;28;20367;-50
2022/01/30 10:24:37;;;;;;;2.65;1.02;;;25.10;32.10;;;;;;5023848;28;20087;-49
2022/01/30 10:27:21;;;;;;;2.15;0.88;;;25.10;32.20;;;;;;5038808;28;20044;-48
2022/01/30 10:30:02;;;;;;;2.17;0.98;;;25.10;32.50;;;;;;5023312;28;20083;-49
2022/01/30 10:32:28;;;;;;;2.90;0.90;;;25.20;32.50;;;;;;5022488;28;20045;-48
2022/01/30 10:35:05;;;;;;;3.42;1.33;;;25.20;32.30;;;;;;5023897;28;20029;-48
2022/01/30 10:37:32;;;;;;;2.05;0.98;;;25.20;32.10;;;;;;5024183;28;20632;-49
2022/01/30 10:40:13;;;;;;;2.22;0.75;;;25.20;32.80;;;;;;5023888;28;20052;-49
2022/01/30 10:42:48;;;;;;;2.45;0.85;;;25.20;32.00;;;;;;5023353;28;20034;-49
2022/01/30 10:45:29;;;;;;;3.67;0.93;;;25.30;32.10;;;;;;5023355;28;20400;-48
2022/01/30 10:48:09;;;;;;;2.67;0.98;;;25.20;31.90;;;;;;5023791;28;20507;-49
2022/01/30 10:50:35;;;;;;;1.92;0.80;;;25.20;31.90;;;;;;5022771;28;20030;-48
2022/01/30 10:53:03;;;;;;;3.35;0.73;;;25.30;31.80;;;;;;5022679;28;20031;-48
2022/01/30 10:55:37;;;;;;;2.38;0.77;;;25.30;31.80;;;;;;5013314;28;20034;-49
2022/01/30 10:58:05;;;;;;;3.95;0.82;;;25.30;31.60;;;;;;5011597;28;20113;-49
2022/01/30 11:00:51;;;;;;;2.05;0.70;;;25.30;31.50;;;;;;5020046;28;20021;-49
2022/01/30 11:03:50;;;;;;;3.25;0.82;;;25.30;31.40;;;;;;5023159;28;20041;-49
2022/01/30 11:06:16;;;;;;;2.13;0.70;;;25.30;31.40;;;;;;5022534;28;20056;-49
2022/01/30 11:08:46;;;;;;;2.50;0.85;;;25.30;31.30;;;;;;5023751;28;20497;-49
2022/01/30 11:11:34;;;;;;;2.13;0.70;;;25.30;31.30;;;;;;5021940;28;20148;-48
2022/01/30 11:14:15;;;;;;;2.30;0.88;;;25.30;31.20;;;;;;5023325;28;20033;-48
2022/01/30 11:19:27;;;;;;;2.13;0.95;;;25.40;31.10;;;;;;5011448;28;20053;-50
2022/01/30 11:22:14;;;;;;;2.08;0.70;;;25.40;31.10;;;;;;5001913;28;20026;-49
2022/01/30 11:24:40;;;;;;;1.80;0.73;;;25.40;31.10;;;;;;5021968;28;20025;-49
2022/01/30 11:27:08;;;;;;;1.83;0.68;;;25.40;31.20;;;;;;5022507;28;20040;-49
2022/01/30 11:29:36;;;;;;;2.35;0.85;;;25.40;31.20;;;;;;5018050;28;20025;-49
2022/01/30 11:32:04;;;;;;;2.47;0.95;;;25.40;31.20;;;;;;5021113;28;20064;-48
2022/01/30 11:34:32;;;;;;;1.65;0.55;;;25.40;31.10;;;;;;5022911;28;20025;-48
2022/01/30 11:36:59;;;;;;;2.72;0.80;;;25.40;31.00;;;;;;5023498;28;20084;-48
2022/01/30 11:39:24;;;;;;;1.75;0.50;;;25.40;30.90;;;;;;5023084;28;20034;-49
2022/01/30 11:42:13;;;;;;;2.15;0.90;;;25.40;31.00;;;;;;5026910;28;20043;-48
2022/01/30 11:45:03;;;;;;;2.33;0.50;;;25.40;30.90;;;;;;5025334;28;20752;-48
2022/01/30 11:47:45;;;;;;;2.83;0.98;;;25.40;30.90;;;;;;5022434;28;20631;-49
2022/01/30 11:50:17;;;;;;;4.38;1.15;;;25.40;30.80;;;;;;5026967;28;20021;-49
2022/01/30 11:53:04;;;;;;;1.85;0.70;;;25.40;31.20;;;;;;5024899;28;20029;-49
2022/01/30 11:56:00;;;;;;;3.78;1.00;;;25.40;30.80;;;;;;5006413;28;20091;-48
2022/01/30 11:58:32;;;;;;;3.00;1.00;;;25.40;30.80;;;;;;5007508;28;20057;-49
2022/01/30 12:01:25;;;;;;;3.75;0.93;;;25.40;30.80;;;;;;5014080;28;20487;-49
2022/01/30 12:03:54;;;;;;;3.40;0.90;;;25.30;31.10;;;;;;5010897;28;20100;-48
2022/01/30 12:06:20;;;;;;;2.80;0.70;;;25.30;31.00;;;;;;5008353;28;20109;-49
2022/01/30 12:08:47;;;;;;;3.72;1.02;;;25.40;31.00;;;;;;5008271;28;20037;-50
2022/01/30 12:11:34;;;;;;;3.40;0.95;;;25.40;31.00;;;;;;5012441;28;20036;-50
2022/01/30 12:14:01;;;;;;;2.67;0.85;;;25.30;31.00;;;;;;5009824;28;20436;-49
2022/01/30 12:16:43;;;;;;;2.55;0.90;;;25.30;31.00;;;;;;5015680;28;20041;-49
2022/01/30 12:19:11;;;;;;;2.38;0.98;;;25.30;31.10;;;;;;5020503;28;20030;-49
2022/01/30 12:21:38;;;;;;;3.30;0.82;;;25.30;30.90;;;;;;5026225;28;20460;-48
2022/01/30 12:24:23;;;;;;;4.20;0.80;;;25.30;31.00;;;;;;5026298;28;20038;-49
2022/01/30 12:26:50;;;;;;;2.72;0.85;;;25.30;31.00;;;;;;5024778;28;20109;-49
2022/01/30 12:29:35;;;;;;;3.58;0.90;;;25.30;30.90;;;;;;5026293;28;20028;-49
2022/01/30 12:34:56;;;;;;;2.40;0.60;;;25.30;31.10;;;;;;5023847;28;20028;-48
2022/01/30 12:37:24;;;;;;;2.35;0.80;;;25.30;30.90;;;;;;5024634;28;20030;-49
2022/01/30 12:39:52;;;;;;;3.35;0.63;;;25.30;30.90;;;;;;5025571;28;20055;-48
2022/01/30 12:42:19;;;;;;;2.40;0.57;;;25.30;31.10;;;;;;5024140;28;20048;-49
2022/01/30 12:44:46;;;;;;;3.08;0.73;;;25.30;31.10;;;;;;5025557;28;20041;-46
2022/01/30 12:47:13;;;;;;;1.52;0.47;;;25.30;31.10;;;;;;5025661;28;20032;-46
2022/01/30 12:49:44;;;;;;;2.53;0.70;;;25.30;31.40;;;;;;5025759;28;20029;-48
2022/01/30 12:52:21;;;;;;;2.45;0.98;;;25.30;31.30;;;;;;5025094;28;20512;-48
2022/01/30 12:54:50;;;;;;;1.95;0.60;;;25.30;31.30;;;;;;5025743;28;20029;-47
2022/01/30 12:57:18;;;;;;;1.60;0.50;;;25.30;31.60;;;;;;5019839;28;20030;-49
2022/01/30 12:59:56;;;;;;;2.65;1.05;;;25.30;31.50;;;;;;5023066;28;20018;-47
2022/01/30 13:02:22;;;;;;;2.38;0.70;;;25.40;31.60;;;;;;5025202;28;20079;-48
2022/01/30 13:05:02;;;;;;;1.55;0.47;;;25.40;31.50;;;;;;5024935;28;20029;-49
2022/01/30 13:07:28;;;;;;;2.08;0.63;;;25.40;31.40;;;;;;5025793;28;20029;-47
2022/01/30 13:10:13;;;;;;;2.60;1.00;;;25.40;31.40;;;;;;5025725;28;20024;-48
2022/01/30 13:12:42;;;;;;;1.77;0.70;;;25.40;31.40;;;;;;5024979;28;20406;-48
2022/01/30 13:15:12;;;;;;;2.05;0.75;;;25.40;31.50;;;;;;5025697;28;20653;-46
2022/01/30 13:17:39;;;;;;;1.67;0.50;;;25.40;31.70;;;;;;5024637;28;20040;-46
2022/01/30 13:20:07;;;;;;;2.15;0.73;;;25.40;31.90;;;;;;5025249;28;20037;-45
2022/01/30 13:22:43;;;;;;;2.80;0.65;;;25.40;31.70;;;;;;5024911;28;20481;-47
2022/01/30 13:25:11;;;;;;;3.28;0.85;;;25.40;31.50;;;;;;5024343;28;20083;-48
2022/01/30 13:27:42;;;;;;;2.15;0.60;;;25.40;31.40;;;;;;5025230;28;20440;-46
2022/01/30 13:30:09;;;;;;;2.75;0.70;;;25.40;31.30;;;;;;5025006;28;20026;-48
2022/01/30 13:32:39;;;;;;;3.30;1.00;;;25.40;31.30;;;;;;5024895;28;20029;-46
2022/01/30 13:35:18;;;;;;;2.38;0.73;;;25.30;31.10;;;;;;5024986;28;20456;-47
2022/01/30 13:37:47;;;;;;;3.30;0.80;;;25.30;31.00;;;;;;5025077;28;20631;-45
2022/01/30 13:42:55;;;;;;;5.13;1.10;;;25.30;30.80;;;;;;5024031;28;20029;-53
2022/01/30 13:48:09;;;;;;;2.17;0.80;;;25.30;31.10;;;;;;5025094;28;20021;-52
2022/01/30 13:51:00;;;;;;;2.65;1.05;;;25.30;31.00;;;;;;5024393;28;20026;-52
2022/01/30 13:53:28;;;;;;;5.18;1.27;;;25.30;31.00;;;;;;5024887;28;20057;-51
2022/01/30 13:55:57;;;;;;;8.82;1.42;;;25.30;31.00;;;;;;5023453;28;20030;-50
2022/01/30 13:58:50;;;;;;;2.78;0.95;;;25.30;30.40;;;;;;5024506;28;20047;-50
2022/01/30 14:01:30;;;;;;;3.13;1.27;;;25.30;30.20;;;;;;5024028;28;20541;-50
2022/01/30 14:04:22;;;;;;;7.95;2.13;;;25.20;30.50;;;;;;5023338;28;20034;-49
2022/01/30 14:06:49;;;;;;;5.68;1.42;;;25.20;31.10;;;;;;5022755;28;20049;-49